Terminal Aerodrome Forecast
Issued by NWS

Current Version | Previous Version | Graphics & Text | Print | Product List | Glossary On
Versions: 1 2 3 4 5 6 7 8 9 10 11 12 13 14 15 16
000
FTUS41 KPBZ 220500
TAFHLG
TAF
KHLG 220520Z 2206/2306 25006KT P6SM OVC080
     FM221300 21010G20KT 6SM -RA BKN020
     FM222000 33015G30KT P6SM BKN035
     FM230200 33010KT P6SM BKN040=

USA.gov is the U.S. government's official web portal to all federal, state and local government web resources and services.